createdAt,value
2023-02-14T00:00:30.661Z,10.20
2023-02-14T00:01:30.648Z,9.00
2023-02-14T00:02:30.693Z,11.20
2023-02-14T00:03:30.621Z,10.30
2023-02-14T00:04:30.823Z,10.90
2023-02-14T00:05:30.603Z,9.60
2023-02-14T00:06:30.582Z,7.90
2023-02-14T00:07:30.577Z,8.80
2023-02-14T00:08:30.574Z,7.60
2023-02-14T00:09:30.722Z,8.00
2023-02-14T00:10:30.550Z,8.70
2023-02-14T00:11:30.545Z,7.40
2023-02-14T00:12:30.512Z,7.80
2023-02-14T00:13:30.491Z,8.40
2023-02-14T00:14:30.484Z,9.80
2023-02-14T00:15:30.481Z,8.20
2023-02-14T00:16:30.512Z,10.60
2023-02-14T00:17:30.441Z,7.10
2023-02-14T00:18:30.420Z,11.60
2023-02-14T00:19:30.419Z,9.60
2023-02-14T00:20:30.569Z,8.70
2023-02-14T00:21:30.389Z,9.10
2023-02-14T00:22:30.553Z,8.00
2023-02-14T00:23:30.369Z,7.60
2023-02-14T00:24:30.348Z,9.80
2023-02-14T00:25:30.349Z,10.70
2023-02-14T00:26:30.387Z,6.50
2023-02-14T00:27:30.315Z,7.20
2023-02-14T00:28:30.295Z,6.40
2023-02-14T00:29:30.299Z,7.10
2023-02-14T00:30:30.360Z,8.50
2023-02-14T00:31:30.508Z,7.10
2023-02-14T00:32:30.285Z,11.80
2023-02-14T00:33:30.227Z,9.70
2023-02-14T00:34:30.220Z,10.10
2023-02-14T00:35:30.207Z,7.90
2023-02-14T00:36:30.202Z,9.10
2023-02-14T00:37:30.349Z,8.40
2023-02-14T00:38:30.156Z,10.10
2023-02-14T00:39:30.156Z,8.60
2023-02-14T00:40:30.129Z,14.40
2023-02-14T00:41:30.131Z,8.40
2023-02-14T00:42:30.290Z,10.30
2023-02-14T00:43:30.103Z,10.20
2023-02-14T00:44:30.072Z,10.20
2023-02-14T00:45:30.109Z,9.30
2023-02-14T00:46:30.054Z,7.40
2023-02-14T00:47:30.222Z,7.30
2023-02-14T00:48:30.032Z,9.20
2023-02-14T00:49:30.054Z,7.70
2023-02-14T00:50:30.008Z,10.60
2023-02-14T00:51:29.993Z,9.90
2023-02-14T00:52:30.156Z,7.80
2023-02-14T00:53:29.972Z,12.00
2023-02-14T00:54:29.959Z,10.40
2023-02-14T00:55:29.942Z,10.60
2023-02-14T00:56:29.940Z,7.20
2023-02-14T00:57:30.111Z,7.10
2023-02-14T00:58:29.962Z,8.40
2023-02-14T00:59:29.899Z,9.70
2023-02-14T01:00:29.891Z,10.10
2023-02-14T01:01:29.879Z,9.80
2023-02-14T01:02:29.927Z,7.70
2023-02-14T01:03:30.155Z,5.90
2023-02-14T01:04:29.831Z,7.20
2023-02-14T01:05:29.808Z,11.10
2023-02-14T01:06:29.799Z,7.40
2023-02-14T01:07:29.789Z,8.20
2023-02-14T01:08:29.994Z,7.10
2023-02-14T01:09:29.931Z,6.50
2023-02-14T01:10:29.796Z,7.70
2023-02-14T01:11:30.375Z,8.30
2023-02-14T01:12:29.710Z,8.70
2023-02-14T01:13:29.714Z,8.60
2023-02-14T01:14:29.871Z,9.30
2023-02-14T01:15:29.689Z,9.90
2023-02-14T01:16:29.713Z,12.10
2023-02-14T01:17:29.826Z,8.40
2023-02-14T01:18:29.625Z,8.20
2023-02-14T01:19:29.625Z,9.40
2023-02-14T01:20:29.796Z,7.30
2023-02-14T01:21:29.636Z,9.90
2023-02-14T01:22:29.596Z,9.30
2023-02-14T01:23:29.575Z,8.00
2023-02-14T01:24:29.752Z,8.10
2023-02-14T01:25:29.554Z,8.50
2023-02-14T01:26:29.533Z,14.40
2023-02-14T01:27:29.515Z,8.60
2023-02-14T01:28:29.504Z,7.60
2023-02-14T01:29:29.676Z,8.30
2023-02-14T01:30:29.687Z,6.30
2023-02-14T01:31:29.653Z,6.80
2023-02-14T01:32:29.454Z,10.10
2023-02-14T01:33:29.449Z,10.80
2023-02-14T01:34:29.632Z,11.60
2023-02-14T01:35:29.591Z,7.80
2023-02-14T01:36:29.392Z,7.50
2023-02-14T01:37:29.402Z,9.30
2023-02-14T01:38:29.388Z,10.00
2023-02-14T01:39:29.364Z,9.20
2023-02-14T01:40:29.379Z,7.50
2023-02-14T01:41:29.343Z,6.70
2023-02-14T01:42:29.334Z,8.20
2023-02-14T01:43:29.304Z,9.10
2023-02-14T01:44:29.299Z,10.90
2023-02-14T01:45:29.331Z,10.10
2023-02-14T01:46:29.272Z,8.00
2023-02-14T01:47:29.475Z,6.90
2023-02-14T01:48:29.241Z,9.00
2023-02-14T01:49:29.233Z,8.40
2023-02-14T01:50:29.227Z,8.30
2023-02-14T01:51:29.212Z,10.00
2023-02-14T01:52:29.210Z,7.40
2023-02-14T01:53:29.183Z,11.20
2023-02-14T01:54:29.163Z,9.40
2023-02-14T01:55:29.155Z,9.00
2023-02-14T01:56:29.155Z,7.20
2023-02-14T01:57:29.304Z,6.40
2023-02-14T01:58:29.116Z,7.20
2023-02-14T01:59:29.104Z,8.30
2023-02-14T02:00:29.082Z,8.60
2023-02-14T02:01:29.183Z,9.60
2023-02-14T02:02:29.280Z,7.90
2023-02-14T02:03:29.092Z,8.70
2023-02-14T02:04:29.042Z,7.70
2023-02-14T02:05:29.034Z,12.40
2023-02-14T02:06:29.002Z,10.30
2023-02-14T02:07:29.202Z,10.40
2023-02-14T02:08:29.184Z,10.50
2023-02-14T02:09:28.979Z,7.60
2023-02-14T02:10:28.964Z,7.80
2023-02-14T02:11:28.955Z,12.10
2023-02-14T02:12:30.915Z,10.50
2023-02-14T02:13:29.105Z,9.30
2023-02-14T02:14:28.912Z,8.50
2023-02-14T02:15:28.889Z,9.30
2023-02-14T02:16:28.892Z,7.80
2023-02-14T02:17:29.055Z,10.50
2023-02-14T02:18:28.852Z,7.80
2023-02-14T02:19:28.848Z,8.90
2023-02-14T02:20:28.827Z,9.90
2023-02-14T02:21:28.817Z,8.10
2023-02-14T02:22:28.986Z,13.20
2023-02-14T02:23:28.789Z,10.20
2023-02-14T02:24:28.954Z,9.30
2023-02-14T02:25:28.766Z,7.10
2023-02-14T02:26:28.751Z,7.80
2023-02-14T02:27:28.745Z,10.60
2023-02-14T02:28:28.716Z,10.40
2023-02-14T02:29:28.886Z,10.50
2023-02-14T02:30:28.795Z,8.90
2023-02-14T02:31:28.779Z,10.10
2023-02-14T02:32:28.668Z,8.80
2023-02-14T02:33:28.675Z,9.30
2023-02-14T02:34:28.816Z,8.80
2023-02-14T02:35:28.656Z,9.40
2023-02-14T02:36:28.614Z,9.40
2023-02-14T02:37:28.606Z,6.40
2023-02-14T02:38:28.584Z,10.40
2023-02-14T02:39:28.782Z,8.70
2023-02-14T02:40:28.770Z,10.00
2023-02-14T02:41:28.565Z,8.50
2023-02-14T02:42:28.536Z,10.40
2023-02-14T02:43:28.523Z,8.30
2023-02-14T02:44:28.524Z,10.00
2023-02-14T02:45:28.506Z,8.80
2023-02-14T02:46:28.718Z,9.00
2023-02-14T02:47:28.476Z,10.70
2023-02-14T02:48:28.461Z,10.40
2023-02-14T02:49:28.454Z,9.30
2023-02-14T02:50:28.440Z,9.20
2023-02-14T02:51:28.442Z,8.90
2023-02-14T02:52:28.410Z,12.30
2023-02-14T02:53:28.411Z,9.50
2023-02-14T02:54:28.391Z,8.80
2023-02-14T02:55:28.368Z,9.70
2023-02-14T02:56:28.534Z,8.20
2023-02-14T02:57:28.345Z,9.50
2023-02-14T02:58:28.342Z,10.90
2023-02-14T02:59:28.320Z,9.50
2023-02-14T03:00:28.300Z,8.10
2023-02-14T03:01:28.345Z,9.70
2023-02-14T03:02:28.464Z,10.00
2023-02-14T03:03:28.268Z,8.10
2023-02-14T03:04:28.291Z,7.90
2023-02-14T03:05:28.237Z,8.70
2023-02-14T03:06:28.417Z,9.20
2023-02-14T03:07:28.392Z,8.50
2023-02-14T03:08:28.219Z,8.90
2023-02-14T03:09:28.200Z,8.50
2023-02-14T03:10:28.181Z,10.40
2023-02-14T03:11:28.168Z,11.40
2023-02-14T03:12:28.150Z,8.40
2023-02-14T03:13:28.151Z,8.30
2023-02-14T03:14:28.127Z,8.70
2023-02-14T03:15:28.149Z,9.90
2023-02-14T03:16:28.100Z,15.00
2023-02-14T03:17:28.255Z,9.70
2023-02-14T03:18:28.246Z,11.20
2023-02-14T03:19:28.056Z,11.30
2023-02-14T03:20:28.045Z,9.50
2023-02-14T03:21:28.036Z,9.90
2023-02-14T03:22:28.015Z,10.30
2023-02-14T03:23:28.185Z,10.20
2023-02-14T03:24:27.999Z,8.50
2023-02-14T03:25:27.985Z,10.10
2023-02-14T03:26:27.972Z,11.10
2023-02-14T03:27:27.944Z,11.40
2023-02-14T03:28:28.124Z,9.00
2023-02-14T03:29:27.934Z,13.60
2023-02-14T03:30:27.968Z,19.40
2023-02-14T03:31:28.010Z,11.60
2023-02-14T03:32:27.893Z,10.30
2023-02-14T03:33:27.893Z,12.00
2023-02-14T03:34:28.043Z,11.00
2023-02-14T03:35:28.022Z,9.30
2023-02-14T03:36:27.864Z,11.70
2023-02-14T03:37:27.830Z,10.20
2023-02-14T03:38:27.830Z,13.00
2023-02-14T03:39:27.792Z,11.30
2023-02-14T03:40:27.964Z,13.00
2023-02-14T03:41:27.769Z,12.10
2023-02-14T03:42:27.763Z,10.20
2023-02-14T03:43:27.747Z,12.70
2023-02-14T03:44:27.911Z,11.20
2023-02-14T03:45:27.800Z,12.20
2023-02-14T03:46:27.931Z,16.20
2023-02-14T03:47:27.700Z,14.50
2023-02-14T03:48:27.680Z,13.10
2023-02-14T03:49:27.662Z,10.70
2023-02-14T03:50:27.659Z,12.10
2023-02-14T03:51:27.820Z,13.20
2023-02-14T03:52:27.630Z,12.60
2023-02-14T03:53:27.613Z,11.40
2023-02-14T03:54:27.598Z,12.30
2023-02-14T03:55:27.771Z,12.50
2023-02-14T03:56:27.636Z,16.90
2023-02-14T03:57:27.557Z,11.40
2023-02-14T03:58:27.545Z,15.00
2023-02-14T03:59:27.534Z,11.20
2023-02-14T04:00:27.549Z,11.60
2023-02-14T04:01:27.739Z,14.60
2023-02-14T04:02:27.501Z,12.30
2023-02-14T04:03:27.549Z,15.70
2023-02-14T04:04:27.501Z,16.30
2023-02-14T04:05:27.466Z,10.80
2023-02-14T04:06:27.443Z,16.70
2023-02-14T04:07:27.429Z,13.70
2023-02-14T04:08:27.615Z,12.90
2023-02-14T04:09:27.404Z,15.30
2023-02-14T04:10:27.394Z,13.50
2023-02-14T04:11:27.384Z,16.10
2023-02-14T04:12:37.493Z,20.60
2023-02-14T04:13:28.524Z,14.80
2023-02-14T04:14:27.360Z,15.50
2023-02-14T04:15:27.325Z,12.80
2023-02-14T04:16:27.312Z,17.50
2023-02-14T04:17:27.295Z,12.60
2023-02-14T04:18:27.468Z,16.40
2023-02-14T04:19:27.275Z,13.50
2023-02-14T04:20:27.435Z,14.60
2023-02-14T04:21:27.251Z,14.70
2023-02-14T04:22:27.232Z,14.30
2023-02-14T04:23:27.220Z,11.00
2023-02-14T04:24:27.390Z,16.50
2023-02-14T04:25:27.190Z,15.10
2023-02-14T04:26:27.189Z,18.70
2023-02-14T04:27:27.173Z,15.70
2023-02-14T04:28:27.158Z,14.50
2023-02-14T04:29:27.314Z,16.30
2023-02-14T04:30:27.348Z,16.80
2023-02-14T04:31:27.226Z,16.50
2023-02-14T04:32:27.226Z,15.70
2023-02-14T04:33:27.089Z,14.50
2023-02-14T04:34:27.068Z,14.20
2023-02-14T04:35:27.246Z,17.40
2023-02-14T04:36:27.306Z,13.80
2023-02-14T04:37:27.045Z,20.40
2023-02-14T04:38:27.022Z,15.20
2023-02-14T04:39:27.015Z,15.80
2023-02-14T04:40:27.007Z,18.50
2023-02-14T04:41:26.988Z,15.20
2023-02-14T04:42:27.145Z,16.10
2023-02-14T04:43:26.959Z,21.40
2023-02-14T04:44:26.947Z,16.10
2023-02-14T04:45:26.934Z,16.20
2023-02-14T04:46:26.952Z,15.90
2023-02-14T04:47:26.925Z,17.20
2023-02-14T04:48:27.062Z,18.80
2023-02-14T04:49:26.899Z,19.60
2023-02-14T04:50:26.867Z,19.70
2023-02-14T04:51:27.727Z,14.40
2023-02-14T04:52:26.842Z,17.40
2023-02-14T04:53:27.003Z,15.30
2023-02-14T04:54:26.813Z,19.00
2023-02-14T04:55:26.826Z,15.20
2023-02-14T04:56:26.793Z,20.20
2023-02-14T04:57:26.774Z,20.00
2023-02-14T04:58:26.950Z,16.60
2023-02-14T04:59:26.929Z,20.30
2023-02-14T05:00:26.803Z,15.20
2023-02-14T05:01:26.730Z,17.50
2023-02-14T05:02:26.796Z,20.00
2023-02-14T05:03:26.699Z,19.00
2023-02-14T05:04:26.703Z,17.30
2023-02-14T05:05:26.676Z,16.40
2023-02-14T05:06:26.658Z,19.80
2023-02-14T05:07:26.648Z,20.00
2023-02-14T05:08:26.638Z,17.10
2023-02-14T05:09:26.648Z,18.10
2023-02-14T05:10:26.598Z,18.50
2023-02-14T05:11:26.664Z,20.40
2023-02-14T05:12:26.589Z,16.30
2023-02-14T05:13:26.565Z,14.70
2023-02-14T05:14:26.556Z,18.00
2023-02-14T05:15:26.545Z,20.60
2023-02-14T05:16:26.742Z,23.30
2023-02-14T05:17:26.514Z,20.90
2023-02-14T05:18:26.502Z,22.80
2023-02-14T05:19:26.496Z,21.90
2023-02-14T05:20:26.473Z,22.20
2023-02-14T05:21:26.645Z,20.10
2023-02-14T05:22:26.453Z,22.30
2023-02-14T05:23:26.619Z,18.90
2023-02-14T05:24:26.434Z,18.80
2023-02-14T05:25:26.411Z,21.00
2023-02-14T05:26:26.394Z,20.90
2023-02-14T05:27:26.396Z,21.60
2023-02-14T05:28:26.460Z,20.60
2023-02-14T05:29:26.542Z,26.90
2023-02-14T05:30:26.510Z,23.30
2023-02-14T05:31:26.422Z,26.60
2023-02-14T05:32:26.318Z,21.00
2023-02-14T05:33:26.306Z,22.60
2023-02-14T05:34:26.489Z,30.90
2023-02-14T05:35:26.285Z,24.50
2023-02-14T05:36:26.264Z,23.60
2023-02-14T05:37:26.257Z,21.60
2023-02-14T05:38:26.248Z,22.30
2023-02-14T05:39:26.427Z,27.40
2023-02-14T05:40:56.106Z,29.50
2023-02-14T05:41:57.944Z,27.60
2023-02-14T05:42:56.089Z,26.40
2023-02-14T05:43:56.073Z,25.10
2023-02-14T05:44:56.234Z,29.80
2023-02-14T05:45:56.047Z,30.00
2023-02-14T05:46:56.043Z,29.30
2023-02-14T05:47:56.206Z,29.50
2023-02-14T05:48:56.010Z,33.30
2023-02-14T05:49:56.009Z,27.00
2023-02-14T05:50:55.987Z,27.10
2023-02-14T05:51:56.159Z,31.10
2023-02-14T05:52:55.958Z,31.90
2023-02-14T05:53:55.946Z,31.40
2023-02-14T05:54:55.926Z,30.10
2023-02-14T05:55:55.916Z,29.00
2023-02-14T05:56:55.904Z,35.10
2023-02-14T05:57:55.925Z,35.70
2023-02-14T05:58:55.878Z,33.20
2023-02-14T05:59:55.881Z,28.90
2023-02-14T06:00:55.855Z,32.00
2023-02-14T06:01:55.906Z,40.40
2023-02-14T06:02:56.005Z,33.20
2023-02-14T06:03:55.995Z,37.00
2023-02-14T06:04:55.811Z,40.80
2023-02-14T06:05:55.820Z,35.30
2023-02-14T06:06:55.790Z,34.50
2023-02-14T06:07:55.767Z,32.70
2023-02-14T06:08:55.932Z,36.50
2023-02-14T06:09:55.755Z,37.20
2023-02-14T06:10:55.727Z,33.70
2023-02-14T06:11:55.730Z,37.20
2023-02-14T06:12:55.703Z,33.70
2023-02-14T06:13:55.925Z,33.00
2023-02-14T06:14:55.676Z,34.00
2023-02-14T06:15:55.848Z,34.60
2023-02-14T06:16:55.686Z,32.30
2023-02-14T06:17:55.650Z,37.80
2023-02-14T06:18:55.808Z,35.60
2023-02-14T06:19:55.625Z,34.80
2023-02-14T06:20:55.771Z,38.50
2023-02-14T06:21:55.593Z,38.20
2023-02-14T06:22:55.670Z,34.30
2023-02-14T06:23:55.569Z,37.50
2023-02-14T06:24:55.862Z,35.90
2023-02-14T06:25:55.544Z,36.40
2023-02-14T06:26:55.522Z,37.20
2023-02-14T06:27:55.591Z,41.60
2023-02-14T06:28:55.520Z,36.90
2023-02-14T06:29:55.520Z,36.00
2023-02-14T06:30:55.598Z,33.90
2023-02-14T06:31:55.552Z,38.40
2023-02-14T06:32:55.450Z,34.50
2023-02-14T06:33:55.630Z,37.10
2023-02-14T06:34:55.424Z,36.50
2023-02-14T06:35:55.422Z,40.00
2023-02-14T06:36:55.393Z,35.30
2023-02-14T06:37:55.380Z,38.10
2023-02-14T06:38:55.549Z,45.80
2023-02-14T06:39:55.360Z,41.00
2023-02-14T06:40:55.550Z,37.80
2023-02-14T06:41:55.328Z,32.40
2023-02-14T06:42:55.320Z,41.40
2023-02-14T06:43:55.323Z,38.20
2023-02-14T06:44:55.305Z,36.90
2023-02-14T06:45:55.325Z,40.90
2023-02-14T06:46:55.257Z,38.40
2023-02-14T06:47:55.260Z,39.50
2023-02-14T06:48:55.416Z,31.80
2023-02-14T06:49:55.226Z,37.70
2023-02-14T06:50:55.212Z,35.60
2023-02-14T06:51:55.207Z,37.80
2023-02-14T06:52:55.186Z,36.60
2023-02-14T06:53:55.541Z,33.80
2023-02-14T06:54:55.158Z,38.50
2023-02-14T06:55:55.149Z,37.00
2023-02-14T06:56:55.171Z,39.60
2023-02-14T06:57:55.137Z,36.80
2023-02-14T06:58:55.290Z,38.90
2023-02-14T06:59:55.104Z,37.60
2023-02-14T07:00:55.090Z,31.20
2023-02-14T07:01:55.079Z,35.50
2023-02-14T07:02:55.153Z,37.90
2023-02-14T07:03:55.064Z,33.70
2023-02-14T07:04:55.035Z,41.20
2023-02-14T07:05:55.051Z,33.60
2023-02-14T07:06:55.002Z,38.90
2023-02-14T07:07:55.009Z,37.80
2023-02-14T07:08:54.981Z,35.00
2023-02-14T07:09:54.978Z,34.40
2023-02-14T07:10:54.976Z,30.70
2023-02-14T07:11:55.120Z,31.80
2023-02-14T07:12:54.936Z,33.80
2023-02-14T07:13:54.922Z,36.10
2023-02-14T07:14:54.899Z,30.10
2023-02-14T07:15:54.935Z,34.40
2023-02-14T07:16:54.891Z,33.10
2023-02-14T07:17:54.859Z,31.90
2023-02-14T07:18:54.873Z,36.60
2023-02-14T07:19:54.841Z,30.70
2023-02-14T07:20:54.841Z,26.80
2023-02-14T07:21:54.990Z,31.50
2023-02-14T07:22:54.803Z,33.20
2023-02-14T07:23:54.978Z,37.30
2023-02-14T07:24:54.769Z,34.90
2023-02-14T07:25:54.769Z,30.20
2023-02-14T07:26:54.761Z,36.20
2023-02-14T07:27:54.817Z,35.80
2023-02-14T07:28:54.728Z,27.70
2023-02-14T07:29:54.764Z,26.60
2023-02-14T07:30:54.760Z,29.20
2023-02-14T07:31:54.845Z,32.60
2023-02-14T07:32:54.674Z,28.70
2023-02-14T07:33:54.837Z,24.70
2023-02-14T07:34:54.817Z,29.30
2023-02-14T07:35:54.636Z,27.30
2023-02-14T07:36:54.633Z,31.00
2023-02-14T07:37:54.605Z,27.50
2023-02-14T07:38:54.585Z,26.90
2023-02-14T07:39:54.771Z,22.90
2023-02-14T07:40:54.637Z,23.30
2023-02-14T07:41:54.562Z,27.00
2023-02-14T07:42:54.552Z,26.30
2023-02-14T07:43:54.532Z,25.10
2023-02-14T07:44:54.512Z,24.10
2023-02-14T07:45:54.559Z,23.70
2023-02-14T07:46:54.483Z,25.60
2023-02-14T07:47:54.502Z,25.60
2023-02-14T07:48:54.485Z,21.10
2023-02-14T07:49:54.465Z,23.60
2023-02-14T07:50:54.440Z,27.70
2023-02-14T07:51:54.626Z,25.00
2023-02-14T07:52:54.433Z,24.20
2023-02-14T07:53:54.593Z,30.00
2023-02-14T07:54:54.398Z,26.70
2023-02-14T07:55:54.379Z,26.00
2023-02-14T07:56:54.361Z,25.80
2023-02-14T07:57:54.357Z,22.50
2023-02-14T07:58:54.521Z,25.80
2023-02-14T07:59:54.330Z,26.20
2023-02-14T08:00:54.330Z,24.00
2023-02-14T08:01:54.385Z,24.70
2023-02-14T08:02:54.307Z,25.60
2023-02-14T08:03:54.267Z,26.90
2023-02-14T08:04:54.325Z,27.50
2023-02-14T08:05:54.427Z,24.60
2023-02-14T08:06:54.231Z,26.50
2023-02-14T08:07:54.230Z,25.70
2023-02-14T08:08:54.206Z,30.70
2023-02-14T08:09:54.194Z,23.30
2023-02-14T08:10:54.185Z,20.70
2023-02-14T08:11:54.175Z,23.20
2023-02-14T08:12:54.142Z,26.30
2023-02-14T08:13:54.148Z,24.20
2023-02-14T08:14:54.121Z,22.60
2023-02-14T08:15:54.258Z,20.90
2023-02-14T08:16:54.102Z,21.60
2023-02-14T08:17:54.090Z,22.70
2023-02-14T08:18:54.081Z,20.70
2023-02-14T08:19:54.060Z,18.60
2023-02-14T08:20:54.282Z,23.20
2023-02-14T08:21:54.038Z,20.90
2023-02-14T08:22:54.048Z,17.20
2023-02-14T08:23:54.014Z,22.70
2023-02-14T08:24:54.014Z,21.60
2023-02-14T08:25:53.986Z,21.20
2023-02-14T08:26:54.136Z,19.10
2023-02-14T08:27:53.989Z,20.60
2023-02-14T08:28:53.964Z,20.80
2023-02-14T08:29:53.969Z,23.00
2023-02-14T08:30:54.017Z,20.30
2023-02-14T08:31:54.187Z,19.10
2023-02-14T08:32:53.938Z,25.40
2023-02-14T08:33:53.876Z,19.20
2023-02-14T08:34:53.863Z,18.50
2023-02-14T08:35:53.863Z,18.80
2023-02-14T08:36:54.076Z,20.70
2023-02-14T08:37:53.833Z,20.70
2023-02-14T08:38:53.823Z,21.10
2023-02-14T08:39:53.800Z,20.30
2023-02-14T08:40:53.814Z,22.70
2023-02-14T08:41:53.966Z,18.70
2023-02-14T08:42:53.782Z,19.20
2023-02-14T08:43:53.745Z,18.60
2023-02-14T08:44:53.780Z,16.70
2023-02-14T08:45:53.918Z,20.30
2023-02-14T08:46:53.963Z,20.60
2023-02-14T08:47:53.717Z,18.40
2023-02-14T08:48:53.702Z,18.10
2023-02-14T08:49:53.659Z,15.80
2023-02-14T08:50:53.836Z,19.00
2023-02-14T08:51:53.652Z,23.70
2023-02-14T08:52:53.666Z,17.40
2023-02-14T08:53:53.621Z,18.90
2023-02-14T08:54:53.639Z,19.20
2023-02-14T08:55:53.884Z,16.90
2023-02-14T08:56:53.598Z,16.50
2023-02-14T08:57:53.587Z,14.60
2023-02-14T08:58:53.577Z,18.60
2023-02-14T08:59:53.560Z,17.50
2023-02-14T09:00:53.598Z,17.10
2023-02-14T09:01:53.518Z,15.60
2023-02-14T09:02:53.541Z,19.50
2023-02-14T09:03:53.611Z,20.10
2023-02-14T09:04:53.669Z,21.90
2023-02-14T09:05:53.476Z,18.40
2023-02-14T09:06:53.489Z,16.40
2023-02-14T09:07:53.436Z,16.00
2023-02-14T09:08:53.425Z,17.40
2023-02-14T09:09:53.586Z,14.10
2023-02-14T09:10:53.404Z,17.50
2023-02-14T09:11:53.396Z,16.50
2023-02-14T09:12:53.386Z,14.30
2023-02-14T09:13:53.413Z,13.90
2023-02-14T09:14:53.369Z,16.00
2023-02-14T09:15:53.352Z,15.80
2023-02-14T09:16:53.350Z,14.60
2023-02-14T09:17:53.308Z,16.00
2023-02-14T09:18:53.321Z,18.20
2023-02-14T09:19:53.484Z,13.00
2023-02-14T09:20:53.303Z,15.40
2023-02-14T09:21:53.256Z,16.30
2023-02-14T09:22:53.245Z,12.30
2023-02-14T09:23:53.240Z,16.20
2023-02-14T09:24:53.230Z,15.10
2023-02-14T09:25:53.193Z,17.50
2023-02-14T09:26:53.368Z,13.70
2023-02-14T09:27:53.172Z,16.50
2023-02-14T09:28:53.372Z,15.40
2023-02-14T09:29:53.178Z,14.60
2023-02-14T09:30:54.534Z,14.90
2023-02-14T09:31:53.233Z,13.20
2023-02-14T09:32:53.111Z,14.30
2023-02-14T09:33:53.106Z,15.30
2023-02-14T09:34:53.265Z,15.00
2023-02-14T09:35:53.241Z,19.30
2023-02-14T09:36:53.051Z,16.20
2023-02-14T09:37:53.059Z,15.00
2023-02-14T09:38:53.201Z,14.40
2023-02-14T09:39:53.013Z,15.50
2023-02-14T09:40:53.187Z,14.40
2023-02-14T09:41:52.987Z,13.50
2023-02-14T09:42:52.981Z,14.10
2023-02-14T09:43:53.145Z,14.40
2023-02-14T09:44:52.948Z,15.30
2023-02-14T09:45:53.216Z,14.30
2023-02-14T09:46:52.935Z,13.80
2023-02-14T09:47:52.922Z,16.70
2023-02-14T09:48:52.944Z,13.90
2023-02-14T09:49:52.923Z,13.10
2023-02-14T09:50:52.888Z,13.20
2023-02-14T09:51:52.869Z,12.00
2023-02-14T09:52:52.847Z,13.80
2023-02-14T09:53:52.827Z,15.50
2023-02-14T09:54:52.835Z,14.60
2023-02-14T09:55:52.980Z,15.80
2023-02-14T09:56:52.798Z,12.30
2023-02-14T09:57:52.788Z,14.10
2023-02-14T09:58:52.933Z,13.20
2023-02-14T09:59:52.794Z,15.10
2023-02-14T10:00:52.791Z,15.60
2023-02-14T10:01:52.806Z,12.60
2023-02-14T10:02:52.725Z,14.50
2023-02-14T10:03:52.884Z,12.70
2023-02-14T10:04:52.687Z,12.70
2023-02-14T10:05:52.684Z,14.10
2023-02-14T10:06:52.663Z,14.90
2023-02-14T10:07:52.654Z,12.50
2023-02-14T10:08:52.636Z,11.70
2023-02-14T10:09:52.636Z,13.60
2023-02-14T10:10:52.615Z,11.80
2023-02-14T10:11:52.624Z,13.30
2023-02-14T10:12:52.575Z,15.40
2023-02-14T10:13:52.574Z,11.60
2023-02-14T10:14:52.723Z,13.60
2023-02-14T10:15:52.554Z,12.40
2023-02-14T10:16:52.597Z,12.60
2023-02-14T10:17:52.543Z,13.90
2023-02-14T10:18:52.500Z,12.60
2023-02-14T10:19:52.492Z,12.00
2023-02-14T10:20:52.471Z,10.40
2023-02-14T10:21:52.471Z,13.00
2023-02-14T10:22:52.471Z,10.70
2023-02-14T10:23:52.454Z,15.30
2023-02-14T10:24:52.433Z,14.80
2023-02-14T10:25:52.412Z,13.50
2023-02-14T10:26:52.393Z,13.60
2023-02-14T10:27:52.402Z,12.50
2023-02-14T10:28:52.382Z,13.10
2023-02-14T10:29:52.431Z,14.00
2023-02-14T10:30:52.387Z,11.30
2023-02-14T10:31:52.364Z,12.80
2023-02-14T10:32:52.500Z,12.80
2023-02-14T10:33:52.310Z,11.00
2023-02-14T10:34:52.297Z,10.70
2023-02-14T10:35:52.288Z,11.30
2023-02-14T10:36:52.276Z,11.70
2023-02-14T10:37:52.476Z,12.00
2023-02-14T10:38:52.241Z,13.20
2023-02-14T10:39:52.240Z,13.80
2023-02-14T10:40:52.212Z,15.50
2023-02-14T10:41:52.395Z,13.40
2023-02-14T10:42:52.192Z,9.70
2023-02-14T10:43:52.193Z,11.70
2023-02-14T10:44:52.171Z,12.80
2023-02-14T10:45:52.224Z,11.50
2023-02-14T10:46:52.139Z,10.00
2023-02-14T10:47:52.145Z,13.40
2023-02-14T10:48:52.129Z,12.20
2023-02-14T10:49:52.116Z,13.00
2023-02-14T10:50:52.276Z,10.50
2023-02-14T10:51:52.079Z,13.00
2023-02-14T10:52:52.061Z,11.50
2023-02-14T10:53:52.049Z,13.70
2023-02-14T10:54:52.041Z,10.00
2023-02-14T10:55:52.208Z,11.60
2023-02-14T10:56:52.017Z,9.40
2023-02-14T10:57:51.998Z,12.40
2023-02-14T10:58:51.996Z,11.90
2023-02-14T10:59:51.980Z,10.50
2023-02-14T11:00:52.004Z,12.30
2023-02-14T11:01:51.947Z,10.30
2023-02-14T11:02:51.929Z,12.00
2023-02-14T11:03:51.992Z,11.90
2023-02-14T11:04:51.949Z,12.80
2023-02-14T11:05:52.256Z,11.60
2023-02-14T11:06:51.961Z,10.30
2023-02-14T11:07:51.986Z,13.70
2023-02-14T11:08:51.946Z,11.90
2023-02-14T11:09:51.842Z,10.70
2023-02-14T11:10:51.821Z,12.00
2023-02-14T11:11:51.811Z,12.30
2023-02-14T11:12:51.830Z,13.80
2023-02-14T11:13:51.793Z,10.30
2023-02-14T11:14:51.760Z,11.80
2023-02-14T11:15:51.769Z,11.20
2023-02-14T11:16:51.804Z,12.50
2023-02-14T11:17:51.959Z,10.90
2023-02-14T11:18:51.709Z,11.90
2023-02-14T11:19:51.709Z,11.60
2023-02-14T11:20:51.682Z,8.30
2023-02-14T11:21:51.855Z,11.30
2023-02-14T11:22:51.671Z,11.00
2023-02-14T11:23:51.654Z,11.30
2023-02-14T11:24:51.626Z,10.40
2023-02-14T11:25:51.617Z,9.40
2023-02-14T11:26:51.793Z,13.90
2023-02-14T11:27:51.599Z,13.60
2023-02-14T11:28:51.757Z,10.50
2023-02-14T11:29:51.582Z,11.90
2023-02-14T11:30:51.668Z,10.00
2023-02-14T11:31:51.659Z,11.30
2023-02-14T11:32:51.705Z,10.70
2023-02-14T11:33:51.534Z,10.50
2023-02-14T11:34:51.496Z,14.10
2023-02-14T11:35:51.511Z,13.60
2023-02-14T11:36:51.508Z,11.40
2023-02-14T11:37:51.931Z,11.50
2023-02-14T11:38:51.626Z,13.10
2023-02-14T11:39:51.434Z,11.40
2023-02-14T11:40:51.461Z,8.70
2023-02-14T11:41:51.417Z,11.20
2023-02-14T11:42:54.600Z,10.90
2023-02-14T11:43:52.375Z,12.70
2023-02-14T11:44:51.374Z,9.50
2023-02-14T11:45:51.435Z,11.80
2023-02-14T11:46:53.478Z,10.30
2023-02-14T11:47:51.505Z,9.20
2023-02-14T11:48:51.326Z,11.70
2023-02-14T11:49:51.485Z,10.80
2023-02-14T11:50:51.303Z,9.70
2023-02-14T11:51:51.275Z,12.40
2023-02-14T11:52:51.292Z,11.50
2023-02-14T11:53:51.263Z,12.20
2023-02-14T11:54:51.255Z,11.80
2023-02-14T11:55:51.224Z,9.40
2023-02-14T11:56:51.397Z,11.00
2023-02-14T11:57:51.373Z,12.00
2023-02-14T11:58:51.190Z,10.20
2023-02-14T11:59:51.167Z,10.50
2023-02-14T12:00:51.163Z,10.50
2023-02-14T12:01:51.144Z,9.70
2023-02-14T12:02:51.422Z,12.80
2023-02-14T12:03:51.335Z,9.70
2023-02-14T12:04:51.110Z,9.40
2023-02-14T12:05:51.095Z,8.30
2023-02-14T12:06:51.090Z,9.20
2023-02-14T12:07:51.086Z,10.80
2023-02-14T12:08:51.226Z,10.60
2023-02-14T12:09:51.046Z,9.60
2023-02-14T12:10:51.034Z,13.20
2023-02-14T12:11:51.016Z,8.40
2023-02-14T12:12:51.178Z,10.30
2023-02-14T12:13:50.985Z,9.80
2023-02-14T12:14:51.001Z,9.90
2023-02-14T12:15:50.995Z,10.20
2023-02-14T12:16:50.956Z,11.60
2023-02-14T12:17:50.926Z,11.10
2023-02-14T12:18:51.096Z,10.40
2023-02-14T12:19:50.904Z,10.00
2023-02-14T12:20:51.772Z,10.80
2023-02-14T12:21:50.875Z,10.60
2023-02-14T12:22:50.874Z,11.60
2023-02-14T12:23:51.045Z,14.40
2023-02-14T12:24:51.026Z,10.30
2023-02-14T12:25:50.847Z,10.50
2023-02-14T12:26:50.822Z,11.50
2023-02-14T12:27:50.806Z,9.60
2023-02-14T12:28:50.794Z,11.40
2023-02-14T12:29:50.958Z,14.50
2023-02-14T12:30:50.833Z,9.50
2023-02-14T12:31:50.819Z,13.00
2023-02-14T12:32:50.747Z,12.00
2023-02-14T12:33:50.777Z,13.50
2023-02-14T12:34:50.730Z,10.60
2023-02-14T12:35:50.733Z,10.00
2023-02-14T12:36:50.679Z,14.80
2023-02-14T12:37:56.018Z,11.80
2023-02-14T12:38:51.668Z,11.10
2023-02-14T12:39:50.822Z,10.70
2023-02-14T12:40:50.636Z,13.30
2023-02-14T12:41:50.626Z,9.90
2023-02-14T12:42:50.597Z,11.30
2023-02-14T12:43:50.633Z,9.30
2023-02-14T12:44:50.607Z,13.40
2023-02-14T12:45:50.558Z,15.00
2023-02-14T12:46:50.546Z,10.20
2023-02-14T12:47:50.536Z,11.20
2023-02-14T12:48:50.521Z,12.30
2023-02-14T12:49:50.686Z,10.80
2023-02-14T12:50:50.687Z,14.70
2023-02-14T12:51:50.484Z,11.20
2023-02-14T12:52:50.501Z,13.70
2023-02-14T12:53:50.461Z,11.40
2023-02-14T12:54:50.447Z,11.40
2023-02-14T12:55:50.626Z,12.20
2023-02-14T12:56:50.419Z,10.60
2023-02-14T12:57:50.401Z,10.90
2023-02-14T12:58:50.393Z,11.60